Time;durP1;ratioP1;P1;durP2;ratioP2;P2;SDS_P1;SDS_P2;PMS_P1;PMS_P2;Temp;Humidity;BMP_temperature;BMP_pressure;BME280_temperature;BME280_humidity;BME280_pressure;Samples;Min_cycle;Max_cycle;Signal;HPM_P1;HPM_P2
2022/10/10 00:00:38;;;;;;;;;;;;;;;18.83;63.06;102133.66;5054686;28;20490;-80
2022/10/10 00:03:05;;;;;;;8.13;6.40;;;;;;;18.79;63.26;102127.31;5059197;28;19916;-81
2022/10/10 00:05:31;;;;;;;9.07;5.53;;;;;;;18.78;63.36;102141.41;5056215;28;20033;-80
2022/10/10 00:07:57;;;;;;;7.07;5.70;;;;;;;18.75;63.47;102133.28;5053367;28;20501;-82
2022/10/10 00:10:23;;;;;;;9.45;6.85;;;;;;;18.74;63.71;102139.44;5052095;28;20063;-80
2022/10/10 00:12:49;;;;;;;8.60;6.20;;;;;;;18.74;63.66;102134.16;5059330;28;20115;-81
2022/10/10 00:15:15;;;;;;;9.35;6.22;;;;;;;18.75;63.52;102140.34;5046276;28;20081;-80
2022/10/10 00:17:42;;;;;;;8.20;6.43;;;;;;;18.84;63.56;102151.38;5041303;28;20029;-80
2022/10/10 00:20:10;;;;;;;8.35;6.30;;;;;;;18.78;63.50;102151.06;5057442;28;20029;-79
2022/10/10 00:22:36;;;;;;;7.70;6.15;;;;;;;18.77;63.61;102157.19;5056098;28;20394;-80
2022/10/10 00:25:01;;;;;;;7.40;5.82;;;;;;;18.77;63.49;102150.13;5062227;28;20036;-80
2022/10/10 00:27:28;;;;;;;9.07;6.45;;;;;;;18.76;63.68;102145.69;5056507;28;20028;-80
2022/10/10 00:29:53;;;;;;;8.32;6.00;;;;;;;18.79;63.64;102150.25;5065825;28;20024;-80
2022/10/10 00:32:19;;;;;;;7.03;5.90;;;;;;;18.80;63.53;102157.38;5059246;28;20040;-79
2022/10/10 00:34:44;;;;;;;9.55;6.10;;;;;;;18.77;63.42;102150.13;5043613;28;20422;-80
2022/10/10 00:37:10;;;;;;;7.65;5.97;;;;;;;18.74;63.43;102154.41;5059183;28;20047;-81
2022/10/10 00:39:36;;;;;;;7.60;6.13;;;;;;;18.77;63.44;102155.44;5054310;28;20040;-80
2022/10/10 00:42:01;;;;;;;10.10;6.55;;;;;;;18.74;63.13;102149.13;5045720;28;20104;-80
2022/10/10 00:44:27;;;;;;;7.28;6.13;;;;;;;18.77;63.24;102170.41;5047835;28;20022;-81
2022/10/10 00:46:52;;;;;;;7.78;6.15;;;;;;;18.76;63.50;102165.97;5038943;28;20034;-81
2022/10/10 00:49:25;;;;;;;6.80;5.90;;;;;;;18.77;63.49;102179.25;5052266;28;20037;-80
2022/10/10 00:51:55;;;;;;;7.45;6.20;;;;;;;18.80;63.76;102174.13;5063001;28;20025;-81
2022/10/10 00:54:22;;;;;;;8.30;6.60;;;;;;;18.75;63.38;102178.28;5062034;28;20044;-80
2022/10/10 00:56:56;;;;;;;8.50;6.20;;;;;;;18.66;63.77;102172.59;5047025;28;20032;-80
2022/10/10 00:59:23;;;;;;;9.20;6.13;;;;;;;18.78;63.67;102181.13;5039964;28;20032;-81
2022/10/10 01:01:48;;;;;;;7.40;6.15;;;;;;;18.72;63.93;102178.16;5060015;28;20478;-81
2022/10/10 01:04:46;;;;;;;8.50;6.10;;;;;;;18.77;63.61;102189.84;5057702;28;20024;-81
2022/10/10 01:07:16;;;;;;;7.95;5.93;;;;;;;18.76;63.51;102193.34;5022669;28;20071;-81
2022/10/10 01:09:43;;;;;;;8.55;6.65;;;;;;;18.75;63.36;102186.22;5050530;28;20025;-80
2022/10/10 01:12:16;;;;;;;9.70;7.05;;;;;;;18.71;63.51;102176.34;5053871;28;20446;-80
2022/10/10 01:15:00;;;;;;;8.60;6.50;;;;;;;18.74;63.66;102181.78;5034795;28;20056;-80
2022/10/10 01:17:32;;;;;;;7.30;6.28;;;;;;;18.76;63.80;102182.75;5043249;28;20059;-80
2022/10/10 01:20:25;;;;;;;9.35;6.80;;;;;;;18.77;63.58;102192.47;5055384;28;20033;-81
2022/10/10 01:23:18;;;;;;;7.22;6.22;;;;;;;18.71;63.79;102193.16;5050920;28;20033;-82
2022/10/10 01:25:48;;;;;;;7.75;6.55;;;;;;;18.70;64.00;102198.38;5049187;28;20031;-82
2022/10/10 01:28:42;;;;;;;7.78;6.63;;;;;;;18.72;63.67;102201.97;5055407;28;20450;-81
2022/10/10 01:31:09;;;;;;;10.02;7.25;;;;;;;18.75;63.26;102198.56;5058691;28;20044;-81
2022/10/10 01:33:47;;;;;;;11.82;8.15;;;;;;;18.73;62.99;102206.41;5042593;28;20028;-81
2022/10/10 01:36:31;;;;;;;8.70;7.13;;;;;;;18.65;63.35;102198.16;5052107;28;20048;-81
2022/10/10 01:39:04;;;;;;;9.95;6.72;;;;;;;18.67;63.46;102209.72;5036332;28;20384;-81
2022/10/10 01:41:39;;;;;;;10.10;7.25;;;;;;;18.67;63.50;102212.38;5038881;28;20051;-82
2022/10/10 01:44:04;;;;;;;11.98;7.55;;;;;;;18.70;63.23;102224.81;5035068;28;20123;-79
2022/10/10 01:46:32;;;;;;;10.63;7.63;;;;;;;18.72;63.42;102226.69;5052651;28;20100;-80
2022/10/10 01:48:57;;;;;;;11.70;7.90;;;;;;;18.64;63.19;102209.56;5045701;28;20037;-80
2022/10/10 01:51:41;;;;;;;10.70;8.20;;;;;;;18.66;63.08;102223.78;5035914;28;20036;-80
2022/10/10 01:54:29;;;;;;;11.15;7.72;;;;;;;18.67;63.11;102233.53;5049981;28;20571;-80
2022/10/10 01:57:20;;;;;;;10.40;7.30;;;;;;;18.75;63.39;102217.97;5058549;28;20108;-80
2022/10/10 01:59:58;;;;;;;11.38;8.13;;;;;;;18.70;63.45;102217.78;5052274;28;20075;-79
2022/10/10 02:02:31;;;;;;;15.10;8.50;;;;;;;18.58;63.08;102219.00;5056651;28;20032;-79
2022/10/10 02:05:13;;;;;;;9.65;7.55;;;;;;;18.61;63.38;102221.78;5058591;28;20076;-79
2022/10/10 02:07:56;;;;;;;10.75;8.07;;;;;;;18.70;63.04;102223.06;5053779;28;20032;-79
2022/10/10 02:10:25;;;;;;;11.02;7.88;;;;;;;18.70;63.19;102235.41;5048192;28;20025;-79
2022/10/10 02:12:51;;;;;;;11.80;8.07;;;;;;;18.63;63.54;102228.06;5061364;28;20114;-79
2022/10/10 02:15:21;;;;;;;11.02;8.05;;;;;;;18.57;63.53;102235.72;5049546;28;20112;-79
2022/10/10 02:17:48;;;;;;;10.95;8.93;;;;;;;18.62;63.14;102227.13;5055878;28;20075;-80
2022/10/10 02:20:17;;;;;;;12.13;8.75;;;;;;;18.62;63.31;102236.81;5050593;28;20032;-79
2022/10/10 02:22:44;;;;;;;14.35;9.23;;;;;;;18.62;63.38;102234.16;5036908;28;20032;-79
2022/10/10 02:25:11;;;;;;;13.65;9.40;;;;;;;18.47;62.84;102242.31;5045191;28;20026;-80
2022/10/10 02:27:52;;;;;;;11.15;8.27;;;;;;;18.61;63.61;102245.59;5045243;28;20159;-80
2022/10/10 02:30:18;;;;;;;13.60;9.80;;;;;;;18.49;63.41;102253.88;5039095;28;20048;-80
2022/10/10 02:32:48;;;;;;;;;;;;;;;18.60;63.22;102251.72;5050825;28;20107;-80
2022/10/10 02:35:21;;;;;;;14.30;9.05;;;;;;;18.57;62.98;102248.94;5035255;28;20391;-80
2022/10/10 02:37:46;;;;;;;12.88;9.07;;;;;;;18.60;63.16;102257.91;5038135;28;20116;-80
2022/10/10 02:40:17;;;;;;;12.43;8.85;;;;;;;18.47;63.26;102274.06;5035506;28;20052;-80
2022/10/10 02:42:44;;;;;;;11.75;8.80;;;;;;;18.41;63.45;102248.22;5044445;28;20060;-82
2022/10/10 02:45:10;;;;;;;15.35;9.45;;;;;;;18.57;63.33;102265.72;5058139;28;20482;-80
2022/10/10 02:47:35;;;;;;;15.35;10.18;;;;;;;18.53;63.40;102279.63;5058071;28;20116;-80
2022/10/10 02:50:01;;;;;;;11.82;9.00;;;;;;;18.58;63.40;102282.47;5045768;28;20029;-80
2022/10/10 02:52:27;;;;;;;15.45;9.88;;;;;;;18.41;63.77;102265.84;5046533;28;20032;-80
2022/10/10 02:54:52;;;;;;;12.90;9.35;;;;;;;18.47;63.41;102263.47;5041080;28;20025;-80
2022/10/10 02:57:18;;;;;;;13.20;9.05;;;;;;;18.35;63.32;102271.78;5055936;28;20460;-80
2022/10/10 02:59:43;;;;;;;10.88;8.48;;;;;;;18.57;63.47;102278.94;5051812;28;20035;-80
2022/10/10 03:02:09;;;;;;;16.17;9.73;;;;;;;18.39;63.26;102265.75;5056091;28;20505;-80
2022/10/10 03:04:35;;;;;;;10.52;8.68;;;;;;;18.54;63.24;102281.44;5050558;28;20056;-80
2022/10/10 03:07:02;;;;;;;14.95;9.10;;;;;;;18.47;63.63;102287.28;5054566;28;20029;-81
2022/10/10 03:09:28;;;;;;;16.52;10.23;;;;;;;18.44;63.26;102289.81;5041301;28;20025;-81
2022/10/10 03:11:53;;;;;;;13.32;8.75;;;;;;;18.55;63.67;102285.00;5057344;28;20033;-81
2022/10/10 03:14:19;;;;;;;14.05;9.27;;;;;;;18.60;63.39;102304.63;5054342;28;20106;-81
2022/10/10 03:16:44;;;;;;;13.63;9.18;;;;;;;18.56;63.44;102297.38;5050651;28;20051;-80
2022/10/10 03:19:10;;;;;;;10.75;8.23;;;;;;;18.56;63.49;102295.63;5049586;28;20064;-81
2022/10/10 03:21:36;;;;;;;12.75;9.57;;;;;;;18.58;63.52;102293.97;5049875;28;20036;-81
2022/10/10 03:24:01;;;;;;;11.88;8.40;;;;;;;18.58;63.56;102309.84;5051320;28;20407;-80
2022/10/10 03:26:27;;;;;;;13.50;9.68;;;;;;;18.48;63.49;102294.41;5058258;28;20083;-80
2022/10/10 03:28:52;;;;;;;12.15;8.95;;;;;;;18.56;63.13;102302.69;5052418;28;20044;-80
2022/10/10 03:31:18;;;;;;;12.02;9.13;;;;;;;18.60;63.41;102308.16;5053676;28;20052;-82
2022/10/10 03:33:44;;;;;;;11.98;9.23;;;;;;;18.63;63.24;102308.34;5045315;28;20111;-80
2022/10/10 03:36:09;;;;;;;11.85;8.65;;;;;;;18.63;63.35;102310.97;5054899;28;20080;-80
2022/10/10 03:38:35;;;;;;;11.90;9.07;;;;;;;18.59;63.45;102311.66;5048212;28;20127;-79
2022/10/10 03:41:01;;;;;;;11.65;8.75;;;;;;;18.39;63.67;102284.28;5055500;28;20032;-81
2022/10/10 03:43:26;;;;;;;14.45;8.65;;;;;;;18.55;63.27;102295.59;5040125;28;20406;-79
2022/10/10 03:45:52;;;;;;;12.52;8.77;;;;;;;18.61;63.44;102311.75;5049864;28;20026;-80
2022/10/10 03:48:17;;;;;;;13.18;9.07;;;;;;;18.59;63.26;102316.06;5036899;28;20045;-81
2022/10/10 03:50:43;;;;;;;13.05;9.05;;;;;;;18.51;63.38;102303.38;5062098;28;20115;-80
2022/10/10 03:53:08;;;;;;;11.68;8.93;;;;;;;18.49;63.45;102298.84;5039371;28;20478;-80
2022/10/10 03:55:34;;;;;;;11.95;9.07;;;;;;;18.60;63.43;102315.22;5046024;28;20456;-80
2022/10/10 03:58:00;;;;;;;11.52;8.75;;;;;;;18.56;63.62;102324.75;5051264;28;20029;-80
2022/10/10 04:00:25;;;;;;;12.77;8.23;;;;;;;18.52;63.72;102328.13;5050016;28;20035;-80
2022/10/10 04:02:52;;;;;;;12.27;8.25;;;;;;;18.51;63.62;102319.25;5051905;28;20037;-80
2022/10/10 04:05:18;;;;;;;10.18;8.20;;;;;;;18.58;63.64;102324.81;5034438;28;20044;-80
2022/10/10 04:07:43;;;;;;;12.13;8.43;;;;;;;18.54;63.59;102325.50;5048547;28;20025;-80
2022/10/10 04:10:09;;;;;;;12.93;8.73;;;;;;;18.55;63.61;102330.88;5054179;28;20035;-80
2022/10/10 04:12:35;;;;;;;11.38;8.60;;;;;;;18.58;63.55;102327.47;5064980;28;20085;-79
2022/10/10 04:15:01;;;;;;;10.70;8.23;;;;;;;18.56;63.54;102330.03;5055076;28;20032;-80
2022/10/10 04:17:26;;;;;;;9.85;7.93;;;;;;;18.51;63.82;102327.19;5066494;28;20031;-80
2022/10/10 04:19:52;;;;;;;11.70;8.52;;;;;;;18.49;63.84;102320.00;5055942;28;20072;-81
2022/10/10 04:22:18;;;;;;;;;;;;;;;18.52;63.69;102326.38;5056001;28;20028;-80
2022/10/10 04:24:44;;;;;;;11.68;8.75;;;;;;;18.50;63.60;102329.78;5056435;28;19974;-80
2022/10/10 04:27:10;;;;;;;14.32;8.98;;;;;;;18.50;63.68;102332.44;5050539;28;20031;-80
2022/10/10 04:29:35;;;;;;;;;;;;;;;18.53;63.74;102335.19;5056801;28;20041;-80
2022/10/10 04:32:01;;;;;;;14.90;9.27;;;;;;;18.56;63.42;102339.72;5042335;28;19932;-80
2022/10/10 04:34:27;;;;;;;11.38;8.75;;;;;;;18.52;63.37;102339.59;5039346;28;20491;-80
2022/10/10 04:36:52;;;;;;;12.88;8.70;;;;;;;18.47;63.69;102332.25;5055000;28;20102;-81
2022/10/10 04:39:18;;;;;;;10.25;8.70;;;;;;;18.49;63.49;102346.47;5052235;28;20039;-80
2022/10/10 04:41:48;;;;;;;12.20;8.73;;;;;;;18.53;63.59;102356.38;5046414;28;20530;-80
2022/10/10 04:44:15;;;;;;;12.02;8.50;;;;;;;18.51;63.40;102347.44;5067063;28;20555;-81
2022/10/10 04:46:40;;;;;;;9.95;8.70;;;;;;;18.52;63.67;102359.84;5069149;28;20161;-80
2022/10/10 04:49:06;;;;;;;11.27;8.50;;;;;;;18.51;63.57;102364.22;5060747;28;20050;-81
2022/10/10 04:51:31;;;;;;;11.88;8.65;;;;;;;18.55;63.62;102361.72;5054547;28;20037;-80
2022/10/10 04:53:57;;;;;;;13.20;9.13;;;;;;;18.54;63.31;102359.91;5049965;28;20545;-80
2022/10/10 04:56:24;;;;;;;14.40;9.90;;;;;;;18.48;63.76;102369.38;5051257;28;20029;-80
2022/10/10 04:58:50;;;;;;;13.15;9.35;;;;;;;18.26;63.51;102343.63;5047626;28;20032;-80
2022/10/10 05:01:16;;;;;;;15.23;9.65;;;;;;;18.32;63.82;102364.19;5051654;28;20033;-82
2022/10/10 05:03:41;;;;;;;14.25;9.93;;;;;;;18.40;63.25;102365.47;5046209;28;20505;-83
2022/10/10 05:06:07;;;;;;;13.73;9.57;;;;;;;18.35;64.07;102371.34;5053105;28;20056;-83
2022/10/10 05:08:33;;;;;;;13.43;9.70;;;;;;;18.33;63.54;102384.53;5042781;28;20033;-82
2022/10/10 05:10:59;;;;;;;;;;;;;;;18.41;63.20;102388.41;5036390;28;20120;-82
2022/10/10 05:13:24;;;;;;;14.48;9.38;;;;;;;18.40;63.91;102397.22;5050031;28;20011;-83
2022/10/10 05:15:51;;;;;;;14.70;9.95;;;;;;;18.48;63.30;102394.94;5052085;28;20116;-82
2022/10/10 05:18:17;;;;;;;14.07;9.70;;;;;;;18.49;63.45;102400.28;5048594;28;20072;-87
2022/10/10 05:20:46;;;;;;;12.77;9.57;;;;;;;18.41;63.71;102403.41;5050857;28;20114;-84
2022/10/10 05:23:12;;;;;;;12.90;9.05;;;;;;;18.45;63.62;102413.28;5046134;28;20411;-83
2022/10/10 05:25:38;;;;;;;13.98;9.68;;;;;;;18.27;63.29;102392.16;5050882;28;20063;-85
2022/10/10 05:28:04;;;;;;;14.23;9.90;;;;;;;18.29;63.36;102390.50;5050856;28;20056;-85
2022/10/10 05:30:29;;;;;;;13.52;9.70;;;;;;;18.26;63.38;102388.59;5041770;28;20026;-85
2022/10/10 05:32:56;;;;;;;12.82;9.68;;;;;;;18.43;63.66;102417.59;5031346;28;20525;-85
2022/10/10 05:35:21;;;;;;;14.70;9.68;;;;;;;18.31;63.33;102396.78;5031443;28;20140;-84
2022/10/10 05:37:47;;;;;;;13.27;8.85;;;;;;;18.43;63.50;102417.59;5044293;28;20106;-85
2022/10/10 05:40:12;;;;;;;12.32;9.65;;;;;;;18.37;63.19;102410.31;5055041;28;20029;-83
2022/10/10 05:42:38;;;;;;;12.07;9.30;;;;;;;18.38;63.54;102413.84;5046810;28;21070;-85
2022/10/10 05:45:04;;;;;;;12.45;9.57;;;;;;;18.44;63.51;102428.25;5051110;28;20466;-85
2022/10/10 05:47:30;;;;;;;13.05;9.43;;;;;;;18.42;63.49;102424.63;5047219;28;20051;-85
2022/10/10 05:49:55;;;;;;;13.85;9.07;;;;;;;18.40;63.73;102426.31;5033034;28;20103;-84
2022/10/10 05:52:21;;;;;;;12.20;9.02;;;;;;;18.38;63.43;102412.09;5038788;28;20033;-84
2022/10/10 05:54:47;;;;;;;;;;;;;;;18.44;63.56;102438.84;5031149;28;20057;-83
2022/10/10 05:57:12;;;;;;;12.45;8.95;;;;;;;18.26;63.50;102414.13;5035988;28;20389;-83
2022/10/10 05:59:38;;;;;;;13.85;9.63;;;;;;;18.12;63.58;102389.69;5042507;28;20044;-84
2022/10/10 06:02:03;;;;;;;12.23;9.43;;;;;;;18.09;63.32;102378.94;5047423;28;20104;-83
2022/10/10 06:04:29;;;;;;;12.95;8.98;;;;;;;17.93;63.82;102363.13;5046701;28;20064;-83
2022/10/10 06:06:55;;;;;;;12.43;9.23;;;;;;;18.40;63.79;102450.09;5044477;28;20559;-83
2022/10/10 06:09:20;;;;;;;14.75;9.38;;;;;;;18.42;63.80;102453.75;5046381;28;20548;-85
2022/10/10 06:11:46;;;;;;;12.82;8.90;;;;;;;18.39;63.73;102448.28;5037997;28;20033;-86
2022/10/10 06:14:11;;;;;;;13.80;9.05;;;;;;;18.38;64.02;102445.59;5054763;28;20068;-86
2022/10/10 06:16:38;;;;;;;12.57;8.88;;;;;;;18.31;64.01;102447.03;5047580;28;20520;-86
2022/10/10 06:19:04;;;;;;;12.13;9.07;;;;;;;18.34;64.09;102448.91;5030599;28;20411;-86
2022/10/10 06:21:30;;;;;;;15.07;9.60;;;;;;;18.33;64.18;102447.06;5030594;28;20017;-89
2022/10/10 06:23:56;;;;;;;13.65;8.88;;;;;;;18.30;64.13;102434.63;5046411;28;20039;-87
2022/10/10 06:26:22;;;;;;;16.75;9.05;;;;;;;18.44;64.44;102461.75;5039207;28;20037;-88
2022/10/10 06:28:49;;;;;;;20.85;9.95;;;;;;;18.39;64.61;102464.16;5041645;28;20022;-88
2022/10/10 06:31:15;;;;;;;17.23;9.35;;;;;;;18.40;64.61;102460.69;5047686;28;20043;-87
2022/10/10 06:33:46;;;;;;;18.35;9.85;;;;;;;18.37;64.86;102457.91;5038172;28;20021;-86
2022/10/10 06:36:15;;;;;;;19.15;9.75;;;;;;;18.43;64.79;102474.06;5039572;28;20091;-87
2022/10/10 06:38:43;;;;;;;17.58;9.65;;;;;;;18.43;64.96;102470.50;5055928;28;20108;-88
2022/10/10 06:41:09;;;;;;;16.50;10.02;;;;;;;18.45;65.05;102474.13;5046817;28;20020;-87
2022/10/10 06:43:35;;;;;;;19.77;9.85;;;;;;;18.44;65.34;102477.63;5053355;28;20051;-87
2022/10/10 06:46:01;;;;;;;16.38;9.85;;;;;;;18.40;65.17;102473.91;5050306;28;20182;-87
2022/10/10 06:48:28;;;;;;;16.02;9.23;;;;;;;18.33;65.14;102457.66;5054566;28;20063;-88
2022/10/10 06:50:58;;;;;;;16.30;9.80;;;;;;;18.45;65.64;102482.06;5036324;28;20032;-87
2022/10/10 06:53:28;;;;;;;16.85;9.20;;;;;;;18.46;65.31;102486.56;5040064;28;20029;-87
2022/10/10 06:55:54;;;;;;;14.07;9.15;;;;;;;18.47;65.40;102491.88;5049348;28;20017;-87
2022/10/10 06:58:20;;;;;;;;;;;;;;;18.49;65.53;102495.53;5052232;28;20036;-88
2022/10/10 07:00:53;;;;;;;16.73;9.70;;;;;;;18.45;65.63;102493.56;5050724;28;19916;-86
2022/10/10 07:06:08;;;;;;;13.70;9.13;;;;;;;18.44;65.42;102486.47;5053107;28;20035;-87
2022/10/10 07:08:33;;;;;;;16.58;9.43;;;;;;;18.38;65.78;102487.91;5054319;28;20032;-87
2022/10/10 07:10:59;;;;;;;14.45;9.75;;;;;;;18.42;65.71;102484.59;5061443;28;20527;-87
2022/10/10 07:13:25;;;;;;;12.63;9.23;;;;;;;18.49;65.82;102492.88;5055852;28;20037;-87
2022/10/10 07:15:51;;;;;;;15.10;9.05;;;;;;;18.39;65.74;102469.44;5065121;28;20012;-87
2022/10/10 07:18:18;;;;;;;13.90;9.90;;;;;;;18.36;65.92;102466.66;5029392;28;20041;-86
2022/10/10 07:20:44;;;;;;;14.48;9.70;;;;;;;18.49;66.01;102489.34;5051157;28;20032;-87
2022/10/10 07:23:10;;;;;;;16.30;9.68;;;;;;;18.49;65.92;102495.53;5045428;28;20025;-86
2022/10/10 07:25:40;;;;;;;15.02;9.73;;;;;;;18.51;65.68;102496.50;5045447;28;20104;-86
2022/10/10 07:28:06;;;;;;;14.90;9.70;;;;;;;18.39;65.84;102474.72;5057989;28;20039;-87
2022/10/10 07:30:32;;;;;;;15.43;9.65;;;;;;;18.51;65.87;102496.50;5056889;28;20115;-86
2022/10/10 07:32:58;;;;;;;13.75;9.02;;;;;;;18.43;65.79;102475.78;5037205;28;20034;-86
2022/10/10 07:35:25;;;;;;;17.25;9.27;;;;;;;18.56;65.61;102493.19;5043565;28;20044;-86
2022/10/10 07:37:54;;;;;;;16.33;9.55;;;;;;;18.52;65.67;102494.78;5047754;28;20025;-87
2022/10/10 07:40:20;;;;;;;14.15;9.60;;;;;;;18.43;66.13;102489.03;5057496;28;20021;-86
2022/10/10 07:42:46;;;;;;;14.43;9.68;;;;;;;18.38;65.81;102475.56;5042349;28;20040;-86
2022/10/10 07:45:11;;;;;;;14.85;10.07;;;;;;;18.36;65.66;102471.94;5048454;28;20086;-87
2022/10/10 07:47:38;;;;;;;15.35;9.73;;;;;;;18.49;65.59;102495.53;5052392;28;20139;-87
2022/10/10 07:50:05;;;;;;;16.98;9.90;;;;;;;18.40;65.74;102470.38;5057772;28;20207;-87
2022/10/10 07:52:31;;;;;;;13.98;9.10;;;;;;;18.50;65.67;102488.50;5065479;28;20025;-87
2022/10/10 07:54:57;;;;;;;12.93;9.45;;;;;;;18.47;66.37;102483.97;5065228;28;20162;-86
2022/10/10 07:57:22;;;;;;;14.38;9.10;;;;;;;18.45;66.09;102471.50;5058586;28;20590;-85
2022/10/10 07:59:49;;;;;;;13.75;9.32;;;;;;;18.35;66.03;102466.56;5065570;28;20037;-86
2022/10/10 08:02:14;;;;;;;15.73;9.80;;;;;;;18.46;66.40;102482.16;5058291;28;20499;-86
2022/10/10 08:04:40;;;;;;;15.23;9.57;;;;;;;18.46;65.63;102476.88;5057777;28;20025;-85
2022/10/10 08:07:06;;;;;;;12.98;9.55;;;;;;;18.47;65.99;102483.97;5058667;28;20128;-86
2022/10/10 08:09:32;;;;;;;16.48;9.48;;;;;;;18.18;65.64;102437.56;5066440;28;20028;-86
2022/10/10 08:11:57;;;;;;;15.93;8.98;;;;;;;18.43;65.73;102484.63;5068741;28;20037;-85
2022/10/10 08:14:23;;;;;;;16.85;10.05;;;;;;;18.44;65.67;102490.84;5054952;28;20299;-87
2022/10/10 08:16:48;;;;;;;15.30;9.60;;;;;;;18.35;66.03;102475.44;5045343;28;20082;-86
2022/10/10 08:19:14;;;;;;;13.60;9.80;;;;;;;18.28;66.13;102460.97;5055904;28;20037;-86
2022/10/10 08:21:39;;;;;;;12.27;8.55;;;;;;;18.40;65.90;102489.78;5043458;28;20406;-86
2022/10/10 08:24:05;;;;;;;12.93;9.23;;;;;;;18.44;65.63;102493.50;5031007;28;20041;-86
2022/10/10 08:26:31;;;;;;;13.68;8.85;;;;;;;18.43;65.76;102481.09;5047393;28;20033;-86
2022/10/10 08:28:57;;;;;;;12.80;9.00;;;;;;;18.38;65.80;102490.56;5034956;28;20026;-86
2022/10/10 08:31:22;;;;;;;11.65;8.10;;;;;;;18.40;65.90;102492.44;5044542;28;20024;-86
2022/10/10 08:33:49;;;;;;;12.13;8.98;;;;;;;18.21;65.59;102450.94;5036645;28;20415;-85
2022/10/10 08:36:18;;;;;;;15.45;9.07;;;;;;;18.31;65.60;102465.53;5049676;28;20136;-85
2022/10/10 08:38:44;;;;;;;12.85;9.10;;;;;;;18.39;66.03;102477.38;5042169;28;20091;-85
2022/10/10 08:41:31;;;;;;;11.32;8.15;;;;;;;18.40;65.97;102488.88;5041855;28;20025;-84
2022/10/10 08:43:57;;;;;;;;;;;;;;;18.42;66.50;102485.47;5046214;28;20033;-85
2022/10/10 08:46:45;;;;;;;12.48;9.10;;;;;;;18.39;66.43;102492.34;5054356;28;19916;-84
2022/10/10 08:49:20;;;;;;;11.50;8.60;;;;;;;18.26;66.73;102469.66;5052892;28;20090;-85
2022/10/10 08:51:49;;;;;;;13.15;8.77;;;;;;;18.37;66.48;102484.38;5070344;28;20105;-84
2022/10/10 08:54:15;;;;;;;10.80;8.30;;;;;;;18.36;65.79;102489.56;5054155;28;20044;-84
2022/10/10 08:56:41;;;;;;;;;;;;;;;18.44;65.73;102491.75;5052194;28;20025;-84
2022/10/10 08:59:14;;;;;;;12.98;8.48;;;;;;;18.38;65.87;102494.09;5053445;28;20034;-85
2022/10/10 09:01:39;;;;;;;12.30;8.82;;;;;;;18.39;66.29;102500.28;5063262;28;20039;-84
2022/10/10 09:04:07;;;;;;;11.80;8.30;;;;;;;18.35;66.45;102501.88;5042857;28;20036;-84
2022/10/10 09:06:32;;;;;;;12.05;8.75;;;;;;;18.39;66.90;102506.47;5049118;28;20103;-84
2022/10/10 09:09:35;;;;;;;10.57;8.07;;;;;;;18.39;66.85;102498.53;5067871;28;20036;-85
2022/10/10 09:12:26;;;;;;;12.75;8.35;;;;;;;18.34;66.09;102496.53;5056279;28;20439;-85
2022/10/10 09:15:13;;;;;;;12.02;8.77;;;;;;;18.47;65.79;102497.19;5064978;28;20514;-86
2022/10/10 09:17:49;;;;;;;10.52;8.05;;;;;;;18.50;66.21;102499.09;5058182;28;20119;-85
2022/10/10 09:20:26;;;;;;;11.13;8.65;;;;;;;18.48;66.54;102493.72;5053875;28;20031;-87
2022/10/10 09:23:00;;;;;;;11.02;8.57;;;;;;;18.40;66.77;102489.78;5046111;28;20671;-84
2022/10/10 09:25:37;;;;;;;12.82;8.57;;;;;;;18.46;66.50;102495.38;5054695;28;20035;-84
2022/10/10 09:28:07;;;;;;;14.30;8.68;;;;;;;18.47;66.34;102480.41;5040887;28;20033;-84
2022/10/10 09:30:36;;;;;;;9.43;8.07;;;;;;;18.46;66.41;102484.81;5045067;28;20040;-86
2022/10/10 09:33:14;;;;;;;10.77;7.97;;;;;;;18.48;66.33;102490.19;5041215;28;20035;-85
2022/10/10 09:35:40;;;;;;;12.85;8.20;;;;;;;18.26;66.33;102452.06;5047686;28;20529;-86
2022/10/10 09:38:38;;;;;;;11.15;8.05;;;;;;;18.46;66.27;102495.38;5033310;28;20029;-86
2022/10/10 09:41:09;;;;;;;10.20;7.90;;;;;;;18.45;66.41;102490.00;5035129;28;20078;-86
2022/10/10 09:43:36;;;;;;;12.65;8.60;;;;;;;18.45;66.63;102482.97;5045974;28;20458;-85
2022/10/10 09:46:02;;;;;;;9.95;7.60;;;;;;;18.40;66.54;102480.94;5051221;28;20033;-86
2022/10/10 09:48:33;;;;;;;11.40;7.68;;;;;;;18.46;66.33;102487.44;5034830;28;20086;-86
2022/10/10 09:50:59;;;;;;;10.15;8.00;;;;;;;18.46;66.29;102476.88;5051151;28;20116;-86
2022/10/10 09:53:25;;;;;;;10.68;7.60;;;;;;;18.54;66.20;102492.19;5051369;28;20029;-86
2022/10/10 09:55:52;;;;;;;10.25;7.70;;;;;;;18.47;66.27;102481.31;5051393;28;20398;-85
2022/10/10 09:58:34;;;;;;;10.60;7.78;;;;;;;18.47;66.44;102488.34;5051177;28;20025;-86
2022/10/10 10:01:18;;;;;;;9.52;7.43;;;;;;;18.48;66.16;102482.25;5034103;28;20032;-85
2022/10/10 10:04:17;;;;;;;9.02;7.60;;;;;;;18.49;66.34;102490.22;5038874;28;20025;-84
2022/10/10 10:06:45;;;;;;;10.52;7.38;;;;;;;18.49;66.39;102490.22;5038688;28;20090;-87
2022/10/10 10:09:17;;;;;;;10.38;7.60;;;;;;;18.55;65.96;102483.44;5050507;28;20025;-85
2022/10/10 10:11:44;;;;;;;11.40;7.85;;;;;;;18.54;66.14;102487.81;5050887;28;20025;-85
2022/10/10 10:14:34;;;;;;;9.45;7.30;;;;;;;18.54;66.44;102471.94;5036523;28;20044;-84
2022/10/10 10:17:08;;;;;;;18.77;8.60;;;;;;;18.62;67.79;102474.97;5049165;28;20624;-85
2022/10/10 10:19:40;;;;;;;36.03;10.68;;;;;;;18.65;69.86;102480.41;5049219;28;20039;-85
2022/10/10 10:22:31;;;;;;;33.33;10.57;;;;;;;18.65;70.59;102483.97;5050555;28;20024;-84
2022/10/10 10:24:57;;;;;;;22.92;10.20;;;;;;;18.55;71.35;102475.50;5050549;28;20470;-87
2022/10/10 10:27:25;;;;;;;28.40;9.25;;;;;;;18.55;70.95;102468.47;5050485;28;20025;-83
2022/10/10 10:29:56;;;;;;;21.95;9.70;;;;;;;18.58;71.08;102478.28;5049378;28;20025;-82
2022/10/10 10:32:42;;;;;;;29.08;9.65;;;;;;;18.56;71.13;102475.56;5050658;28;20024;-81
2022/10/10 10:35:11;;;;;;;23.50;9.15;;;;;;;18.56;71.12;102475.56;5044327;28;20410;-81
2022/10/10 10:38:08;;;;;;;22.50;9.43;;;;;;;18.60;70.06;102452.81;5036983;28;20521;-81
2022/10/10 10:40:44;;;;;;;20.80;10.02;;;;;;;18.64;69.77;102468.91;5030587;28;20483;-81
2022/10/10 10:43:44;;;;;;;22.02;9.43;;;;;;;18.68;69.26;102460.28;5047495;28;20102;-82
2022/10/10 10:46:38;;;;;;;18.55;9.35;;;;;;;18.61;68.98;102455.53;5029252;28;20555;-82
2022/10/10 10:49:17;;;;;;;19.55;8.55;;;;;;;18.69;68.94;102462.09;5047655;28;20037;-81
2022/10/10 10:52:25;;;;;;;21.17;8.65;;;;;;;18.69;68.69;102455.91;5050054;28;20545;-81
2022/10/10 10:54:58;;;;;;;19.45;8.57;;;;;;;18.65;68.54;102452.22;5029709;28;20495;-81
2022/10/10 10:58:03;;;;;;;19.83;8.55;;;;;;;18.58;68.63;102447.44;5042880;28;20491;-82
2022/10/10 11:00:34;;;;;;;20.35;8.15;;;;;;;18.52;68.39;102444.53;5031942;28;20518;-81
2022/10/10 11:03:29;;;;;;;15.88;7.97;;;;;;;18.58;68.14;102431.56;5043971;28;20029;-81
2022/10/10 11:06:21;;;;;;;17.45;7.68;;;;;;;18.59;68.24;102443.97;5025094;28;20128;-81
2022/10/10 11:08:53;;;;;;;19.33;7.93;;;;;;;18.57;68.02;102436.81;5048210;28;20068;-82
2022/10/10 11:11:37;;;;;;;17.73;7.72;;;;;;;18.39;68.14;102410.34;5044731;28;20541;-82
2022/10/10 11:14:20;;;;;;;17.40;7.55;;;;;;;18.53;67.95;102430.44;5030687;28;20029;-80
2022/10/10 11:17:11;;;;;;;13.00;7.35;;;;;;;18.55;67.85;102426.13;5030868;28;20120;-81
2022/10/10 11:19:42;;;;;;;14.95;7.57;;;;;;;18.58;67.79;102422.72;5030808;28;20032;-81
2022/10/10 11:22:10;;;;;;;16.80;7.85;;;;;;;18.43;68.00;102399.09;5031318;28;20036;-81
2022/10/10 11:24:42;;;;;;;13.52;7.18;;;;;;;18.54;67.69;102424.31;5034492;28;20099;-81
2022/10/10 11:27:32;;;;;;;15.18;7.38;;;;;;;18.40;67.43;102393.66;5034693;28;20104;-81
2022/10/10 11:30:06;;;;;;;18.38;7.60;;;;;;;18.63;67.24;102424.75;5034612;28;20018;-81
2022/10/10 11:33:11;;;;;;;12.05;6.97;;;;;;;18.60;67.07;102421.94;5033444;28;20127;-81
2022/10/10 11:35:42;;;;;;;11.98;6.70;;;;;;;18.61;67.00;102412.31;5032220;28;20129;-82